Time;durP1;ratioP1;P1;durP2;ratioP2;P2;SDS_P1;SDS_P2;PMS_P1;PMS_P2;Temp;Humidity;BMP_temperature;BMP_pressure;BME280_temperature;BME280_humidity;BME280_pressure;Samples;Min_cycle;Max_cycle;Signal;HPM_P1;HPM_P2
2023/02/28 00:01:37;;;;;;;7.30;3.55;;;;;;;;;;6236718;23;20111;-61
2023/02/28 00:04:11;;;;;;;7.13;3.47;;;;;;;;;;6235545;23;20099;-61
2023/02/28 00:06:38;;;;;;;9.20;3.42;;;;;;;;;;6237179;23;20028;-61
2023/02/28 00:09:05;;;;;;;7.68;3.10;;;;;;;;;;6238207;23;20117;-75
2023/02/28 00:11:39;;;;;;;6.93;3.45;;;;;;;;;;6235762;23;20693;-76
2023/02/28 00:14:06;;;;;;;5.05;3.33;;;;;;;;;;6234110;23;20030;-75
2023/02/28 00:16:40;;;;;;;5.50;3.55;;;;;;;;;;6234994;23;20016;-76
2023/02/28 00:19:07;;;;;;;7.55;3.55;;;;;;;;;;6236640;23;20031;-75
2023/02/28 00:21:35;;;;;;;;;;;;;;;;;;6234516;23;20016;-76
2023/02/28 00:24:09;;;;;;;8.00;4.00;;;;;;;;;;6234793;23;19982;-74
2023/02/28 00:26:36;;;;;;;9.73;3.70;;;;;;;;;;6236637;23;20160;-75
2023/02/28 00:29:03;;;;;;;9.52;3.92;;;;;;;;;;6235089;23;20443;-74
2023/02/28 00:31:37;;;;;;;10.60;3.70;;;;;;;;;;6237137;23;20022;-75
2023/02/28 00:34:04;;;;;;;8.70;3.90;;;;;;;;;;6235507;23;20028;-63
2023/02/28 00:36:38;;;;;;;8.60;3.78;;;;;;;;;;6236730;23;20414;-55
2023/02/28 00:39:05;;;;;;;;;;;;;;;;;;6235483;23;20027;-56
2023/02/28 00:41:32;;;;;;;7.65;3.47;;;;;;;;;;6233408;23;20394;-51
2023/02/28 00:44:06;;;;;;;8.98;4.03;;;;;;;;;;6233832;23;20027;-56
2023/02/28 00:46:40;;;;;;;10.30;3.75;;;;;;;;;;6234851;23;20023;-56
2023/02/28 00:49:14;;;;;;;6.68;3.78;;;;;;;;;;6233350;23;20066;-56
2023/02/28 00:51:41;;;;;;;8.75;3.55;;;;;;;;;;6236430;23;20020;-54
2023/02/28 00:54:15;;;;;;;7.63;3.33;;;;;;;;;;6234894;23;20112;-53
2023/02/28 00:56:42;;;;;;;;;;;;;;;;;;6235103;23;20020;-53
2023/02/28 00:59:11;;;;;;;7.35;4.32;;;;;;;;;;6235814;23;19915;-53
2023/02/28 01:01:45;;;;;;;6.57;3.78;;;;;;;;;;6235844;23;20099;-54
2023/02/28 01:04:13;;;;;;;5.13;2.95;;;;;;;;;;6235382;23;20028;-61
2023/02/28 01:06:47;;;;;;;6.57;3.28;;;;;;;;;;6233455;23;20063;-75
2023/02/28 01:09:14;;;;;;;7.10;3.42;;;;;;;;;;6235289;23;20390;-75
2023/02/28 01:11:48;;;;;;;6.38;3.33;;;;;;;;;;6235371;23;20023;-75
2023/02/28 01:14:16;;;;;;;7.55;4.03;;;;;;;;;;6233738;23;20020;-76
2023/02/28 01:16:43;;;;;;;7.88;3.78;;;;;;;;;;6233397;23;20078;-75
2023/02/28 01:19:17;;;;;;;7.88;4.00;;;;;;;;;;6234627;23;20035;-76
2023/02/28 01:21:44;;;;;;;10.10;4.00;;;;;;;;;;6233060;23;20370;-62
2023/02/28 01:24:18;;;;;;;6.93;3.70;;;;;;;;;;6234598;23;20438;-63
2023/02/28 01:26:45;;;;;;;5.25;3.67;;;;;;;;;;6233845;23;20115;-62
2023/02/28 01:29:12;;;;;;;6.53;3.80;;;;;;;;;;6234553;23;20107;-62
2023/02/28 01:31:46;;;;;;;7.10;3.35;;;;;;;;;;6234359;23;20023;-61
2023/02/28 01:34:13;;;;;;;7.60;3.92;;;;;;;;;;6233888;23;20474;-62
2023/02/28 01:36:47;;;;;;;11.77;3.78;;;;;;;;;;6233370;23;20016;-63
2023/02/28 01:39:14;;;;;;;8.88;4.13;;;;;;;;;;6234987;23;20408;-62
2023/02/28 01:41:41;;;;;;;4.82;2.58;;;;;;;;;;6232661;23;20019;-62
2023/02/28 01:44:40;;;;;;;5.28;3.30;;;;;;;;;;6234654;23;20372;-62
2023/02/28 01:47:08;;;;;;;5.97;2.90;;;;;;;;;;6233154;23;20027;-62
2023/02/28 01:49:42;;;;;;;6.88;3.55;;;;;;;;;;6235919;23;20020;-62
2023/02/28 01:52:17;;;;;;;4.63;3.30;;;;;;;;;;6234347;23;20525;-62
2023/02/28 01:55:00;;;;;;;9.57;3.85;;;;;;;;;;6234234;23;20099;-62
2023/02/28 01:57:30;;;;;;;9.10;3.70;;;;;;;;;;6236172;23;20232;-62
2023/02/28 02:00:07;;;;;;;;;;;;;;;;;;6235598;23;20099;-63
2023/02/28 02:02:34;;;;;;;6.10;3.22;;;;;;;;;;6235148;23;20002;-61
2023/02/28 02:05:04;;;;;;;6.72;3.28;;;;;;;;;;6235316;23;20027;-61
2023/02/28 02:07:43;;;;;;;5.25;3.33;;;;;;;;;;6234537;23;20055;-61
2023/02/28 02:10:17;;;;;;;6.03;3.67;;;;;;;;;;6235317;23;20024;-61
2023/02/28 02:13:05;;;;;;;6.07;3.50;;;;;;;;;;6234994;23;20020;-61
2023/02/28 02:15:41;;;;;;;12.15;3.63;;;;;;;;;;6235202;23;20491;-61
2023/02/28 02:18:18;;;;;;;7.93;3.83;;;;;;;;;;6232054;23;20495;-53
2023/02/28 02:21:03;;;;;;;5.53;3.42;;;;;;;;;;6234265;23;20022;-54
2023/02/28 02:24:00;;;;;;;10.55;3.92;;;;;;;;;;6235761;23;20042;-48
2023/02/28 02:26:27;;;;;;;5.75;3.20;;;;;;;;;;6225688;23;20070;-52
2023/02/28 02:29:20;;;;;;;10.52;3.42;;;;;;;;;;6234722;23;20438;-61
2023/02/28 02:31:47;;;;;;;7.10;3.13;;;;;;;;;;6236801;23;20028;-75
2023/02/28 02:34:24;;;;;;;7.00;3.45;;;;;;;;;;6235455;23;20386;-73
2023/02/28 02:36:54;;;;;;;8.75;3.72;;;;;;;;;;6236094;23;20034;-75
2023/02/28 02:39:32;;;;;;;7.82;3.95;;;;;;;;;;6236496;23;20046;-75
2023/02/28 02:42:19;;;;;;;9.02;3.80;;;;;;;;;;6235966;23;20024;-75
2023/02/28 02:45:06;;;;;;;9.02;4.32;;;;;;;;;;6237549;23;20046;-74
2023/02/28 02:47:41;;;;;;;7.45;3.80;;;;;;;;;;6234979;23;20130;-75
2023/02/28 02:50:12;;;;;;;10.32;4.03;;;;;;;;;;6235463;23;20115;-74
2023/02/28 02:52:49;;;;;;;9.00;4.00;;;;;;;;;;6236816;23;20563;-75
2023/02/28 02:55:17;;;;;;;6.78;3.70;;;;;;;;;;6234994;23;20058;-57
2023/02/28 02:57:55;;;;;;;10.02;3.72;;;;;;;;;;6236087;23;20030;-63
2023/02/28 03:00:29;;;;;;;9.20;4.25;;;;;;;;;;6235152;23;20131;-61
2023/02/28 03:03:03;;;;;;;9.77;4.40;;;;;;;;;;6236825;23;20020;-60
2023/02/28 03:05:34;;;;;;;7.22;3.50;;;;;;;;;;6235038;23;20132;-60
2023/02/28 03:08:08;;;;;;;5.73;3.20;;;;;;;;;;6233397;23;20432;-60
2023/02/28 03:10:35;;;;;;;;;;;;;;;;;;6235593;23;20322;-61
2023/02/28 03:13:16;;;;;;;11.00;4.40;;;;;;;;;;6234566;23;19919;-61
2023/02/28 03:16:03;;;;;;;12.77;4.75;;;;;;;;;;6235263;23;20038;-56
2023/02/28 03:18:43;;;;;;;8.95;4.60;;;;;;;;;;6225570;23;20078;-55
2023/02/28 03:21:17;;;;;;;9.35;4.53;;;;;;;;;;6236434;23;20016;-55
2023/02/28 03:23:54;;;;;;;9.23;4.80;;;;;;;;;;6235891;23;20046;-61
2023/02/28 03:26:29;;;;;;;11.43;4.85;;;;;;;;;;6238851;23;20056;-55
2023/02/28 03:29:05;;;;;;;6.80;4.50;;;;;;;;;;6234118;23;20042;-76
2023/02/28 03:31:47;;;;;;;9.02;3.63;;;;;;;;;;6235987;23;20130;-75
2023/02/28 03:34:21;;;;;;;8.18;3.38;;;;;;;;;;6236581;23;20031;-71
2023/02/28 03:36:58;;;;;;;4.25;2.60;;;;;;;;;;6236499;23;20103;-75
2023/02/28 03:39:41;;;;;;;6.95;3.42;;;;;;;;;;6235859;23;20093;-75
2023/02/28 03:42:24;;;;;;;7.90;3.38;;;;;;;;;;6235216;23;20024;-61
2023/02/28 03:45:03;;;;;;;5.93;3.53;;;;;;;;;;6234200;23;20107;-61
2023/02/28 03:47:40;;;;;;;7.85;4.13;;;;;;;;;;6236912;23;20499;-61
2023/02/28 03:50:09;;;;;;;7.18;3.97;;;;;;;;;;6236612;23;20016;-62
2023/02/28 03:52:46;;;;;;;7.07;3.85;;;;;;;;;;6235037;23;20127;-54
2023/02/28 03:55:14;;;;;;;7.07;3.92;;;;;;;;;;6235427;23;20024;-62
2023/02/28 03:57:53;;;;;;;9.30;4.30;;;;;;;;;;6237182;23;20020;-62
2023/02/28 04:00:30;;;;;;;8.00;3.85;;;;;;;;;;6235581;23;20020;-63
2023/02/28 04:03:04;;;;;;;6.15;3.03;;;;;;;;;;6236773;23;20098;-62
2023/02/28 04:06:07;;;;;;;7.32;4.10;;;;;;;;;;6236700;23;20020;-63
2023/02/28 04:08:41;;;;;;;8.75;4.18;;;;;;;;;;6219534;23;20112;-63
2023/02/28 04:11:15;;;;;;;8.40;4.25;;;;;;;;;;6236041;23;20020;-63
2023/02/28 04:13:49;;;;;;;6.97;3.97;;;;;;;;;;6233923;23;20020;-63
2023/02/28 04:16:16;;;;;;;;;;;;;;;;;;6235014;23;20229;-63
2023/02/28 04:19:04;;;;;;;7.63;3.22;;;;;;;;;;6234338;23;19927;-63
2023/02/28 04:21:39;;;;;;;11.25;4.28;;;;;;;;;;6236552;23;20059;-56
2023/02/28 04:24:08;;;;;;;10.07;3.95;;;;;;;;;;6234529;23;20024;-49
2023/02/28 04:26:37;;;;;;;6.50;3.90;;;;;;;;;;6234963;23;20099;-49
2023/02/28 04:29:12;;;;;;;6.88;3.67;;;;;;;;;;6234621;23;20051;-51
2023/02/28 04:31:39;;;;;;;5.93;3.80;;;;;;;;;;6235402;23;20024;-48
2023/02/28 04:34:13;;;;;;;7.57;3.92;;;;;;;;;;6236427;23;20020;-50
2023/02/28 04:36:40;;;;;;;6.22;3.70;;;;;;;;;;6237055;23;20130;-48
2023/02/28 04:39:07;;;;;;;6.53;3.75;;;;;;;;;;6233368;23;20030;-55
2023/02/28 04:41:48;;;;;;;6.95;4.03;;;;;;;;;;6234187;23;20359;-57
2023/02/28 04:44:22;;;;;;;7.45;4.03;;;;;;;;;;6236580;23;20016;-57
2023/02/28 04:46:56;;;;;;;6.35;3.65;;;;;;;;;;6235764;23;20102;-56
2023/02/28 04:49:23;;;;;;;8.07;3.65;;;;;;;;;;6233318;23;20020;-52
2023/02/28 04:51:50;;;;;;;7.15;3.53;;;;;;;;;;6234031;23;20024;-63
2023/02/28 04:54:24;;;;;;;8.80;3.80;;;;;;;;;;6233406;23;20024;-61
2023/02/28 04:56:51;;;;;;;7.18;3.63;;;;;;;;;;6236248;23;20116;-61
2023/02/28 04:59:25;;;;;;;6.82;3.80;;;;;;;;;;6234189;23;20394;-60
2023/02/28 05:01:52;;;;;;;;;;;;;;;;;;6232576;23;20056;-60
2023/02/28 05:04:19;;;;;;;9.70;4.00;;;;;;;;;;6235380;23;19919;-61
2023/02/28 05:06:53;;;;;;;12.25;4.25;;;;;;;;;;6234992;23;20443;-61
2023/02/28 05:09:28;;;;;;;5.60;3.58;;;;;;;;;;6235830;23;20379;-75
2023/02/28 05:12:09;;;;;;;6.20;3.45;;;;;;;;;;6231701;23;20082;-75
2023/02/28 05:14:51;;;;;;;6.30;3.40;;;;;;;;;;6233173;23;20566;-75
2023/02/28 05:17:31;;;;;;;8.57;3.92;;;;;;;;;;6234766;23;20031;-75
2023/02/28 05:19:59;;;;;;;10.77;4.18;;;;;;;;;;6231949;23;20107;-57
2023/02/28 05:22:41;;;;;;;7.10;4.20;;;;;;;;;;6234722;23;20418;-55
2023/02/28 05:25:11;;;;;;;6.35;3.75;;;;;;;;;;6236863;23;20024;-57
2023/02/28 05:27:46;;;;;;;5.90;3.30;;;;;;;;;;6237777;23;20066;-56
2023/02/28 05:30:13;;;;;;;;;;;;;;;;;;6232527;23;20140;-55
2023/02/28 05:32:44;;;;;;;7.90;4.00;;;;;;;;;;6234448;23;20334;-54
2023/02/28 05:35:18;;;;;;;8.43;4.15;;;;;;;;;;6234105;23;20570;-54
2023/02/28 05:37:45;;;;;;;;;;;;;;;;;;6232692;23;20027;-62
2023/02/28 05:40:20;;;;;;;7.47;3.97;;;;;;;;;;6234116;23;19991;-63
2023/02/28 05:42:54;;;;;;;6.32;3.85;;;;;;;;;;6229170;23;20117;-62
2023/02/28 05:45:28;;;;;;;7.22;4.38;;;;;;;;;;6232567;23;20028;-61
2023/02/28 05:48:02;;;;;;;8.30;3.97;;;;;;;;;;6234072;23;20422;-62
2023/02/28 05:50:29;;;;;;;13.63;3.72;;;;;;;;;;6233605;23;20063;-60
2023/02/28 05:52:57;;;;;;;9.20;3.53;;;;;;;;;;6229560;23;20530;-60
2023/02/28 05:55:31;;;;;;;5.78;3.70;;;;;;;;;;6235533;23;20020;-60
2023/02/28 05:57:58;;;;;;;6.03;3.67;;;;;;;;;;6234422;23;20024;-61
2023/02/28 06:00:32;;;;;;;7.45;3.65;;;;;;;;;;6234920;22;20024;-60
2023/02/28 06:03:01;;;;;;;11.95;4.40;;;;;;;;;;6236307;23;20546;-61
2023/02/28 06:05:28;;;;;;;6.65;3.70;;;;;;;;;;6234949;23;20562;-48
2023/02/28 06:08:02;;;;;;;6.88;3.50;;;;;;;;;;6235483;23;20046;-52
2023/02/28 06:10:29;;;;;;;6.35;3.33;;;;;;;;;;6235410;23;20024;-49
2023/02/28 06:13:00;;;;;;;6.10;3.47;;;;;;;;;;6236914;23;20051;-53
2023/02/28 06:15:34;;;;;;;4.95;3.28;;;;;;;;;;6235954;23;20055;-74
2023/02/28 06:18:01;;;;;;;;;;;;;;;;;;6237446;23;20099;-54
2023/02/28 06:20:36;;;;;;;6.30;3.88;;;;;;;;;;6234865;23;19985;-53
2023/02/28 06:23:03;;;;;;;6.45;3.65;;;;;;;;;;6232938;23;20028;-55
2023/02/28 06:25:30;;;;;;;;;;;;;;;;;;6235763;23;20446;-54
2023/02/28 06:28:04;;;;;;;6.30;3.15;;;;;;;;;;6236952;23;20194;-54
2023/02/28 06:30:32;;;;;;;7.22;2.92;;;;;;;;;;6234990;23;20022;-55
2023/02/28 06:33:06;;;;;;;7.55;3.20;;;;;;;;;;6237810;23;20020;-63
2023/02/28 06:35:33;;;;;;;6.85;3.35;;;;;;;;;;6235258;23;20024;-62
2023/02/28 06:38:00;;;;;;;6.88;3.53;;;;;;;;;;6235421;23;20078;-62
2023/02/28 06:40:35;;;;;;;6.97;3.90;;;;;;;;;;6236282;23;20023;-62
2023/02/28 06:43:03;;;;;;;6.35;4.00;;;;;;;;;;6233742;23;20059;-60
2023/02/28 06:45:44;;;;;;;10.13;3.83;;;;;;;;;;6234519;23;20020;-56
2023/02/28 06:48:11;;;;;;;7.95;3.08;;;;;;;;;;6236821;23;20449;-75
2023/02/28 06:50:46;;;;;;;7.20;3.22;;;;;;;;;;6234996;23;20360;-74
2023/02/28 06:53:14;;;;;;;5.13;3.03;;;;;;;;;;6235093;23;20111;-75
2023/02/28 06:55:41;;;;;;;5.78;3.70;;;;;;;;;;6236010;23;20020;-72
2023/02/28 06:58:15;;;;;;;6.03;3.92;;;;;;;;;;6235489;23;20091;-74
2023/02/28 07:00:43;;;;;;;10.52;5.03;;;;;;;;;;6235924;23;20070;-74
2023/02/28 07:03:18;;;;;;;8.50;3.40;;;;;;;;;;6235008;23;20598;-62
2023/02/28 07:05:45;;;;;;;;;;;;;;;;;;6235753;23;20091;-63
2023/02/28 07:08:13;;;;;;;7.15;3.60;;;;;;;;;;6235878;23;19915;-62
2023/02/28 07:10:47;;;;;;;12.52;3.47;;;;;;;;;;6235623;23;20541;-62
2023/02/28 07:13:14;;;;;;;7.40;3.80;;;;;;;;;;6237673;23;20020;-54
2023/02/28 07:16:02;;;;;;;10.38;3.75;;;;;;;;;;6236341;23;20025;-63
2023/02/28 07:18:29;;;;;;;5.22;3.53;;;;;;;;;;6237177;23;20020;-64
2023/02/28 07:21:04;;;;;;;7.22;3.75;;;;;;;;;;6237998;23;20024;-64
2023/02/28 07:23:38;;;;;;;6.78;3.85;;;;;;;;;;6237726;23;20420;-65
2023/02/28 07:26:14;;;;;;;7.15;3.50;;;;;;;;;;6237428;23;20103;-64
2023/02/28 07:28:48;;;;;;;8.68;3.78;;;;;;;;;;6236255;23;20057;-64
2023/02/28 07:31:16;;;;;;;8.10;3.95;;;;;;;;;;6239232;23;20027;-71
2023/02/28 07:33:44;;;;;;;7.65;4.03;;;;;;;;;;6235927;23;20484;-71
2023/02/28 07:36:21;;;;;;;6.68;3.95;;;;;;;;;;6236619;23;20023;-71
2023/02/28 07:38:49;;;;;;;10.13;4.15;;;;;;;;;;6237354;23;20408;-71
2023/02/28 07:41:24;;;;;;;6.32;3.55;;;;;;;;;;6236395;23;20099;-64
2023/02/28 07:44:00;;;;;;;6.40;3.45;;;;;;;;;;6234042;23;20028;-54
2023/02/28 07:46:35;;;;;;;10.38;4.35;;;;;;;;;;6237549;23;20050;-56
2023/02/28 07:49:03;;;;;;;7.38;3.28;;;;;;;;;;6238061;23;20024;-57
2023/02/28 07:51:31;;;;;;;6.10;3.78;;;;;;;;;;6225051;23;20146;-57
2023/02/28 07:54:05;;;;;;;5.80;3.13;;;;;;;;;;6237659;23;20099;-57
2023/02/28 07:56:32;;;;;;;9.02;3.80;;;;;;;;;;6236478;23;20091;-56
2023/02/28 07:59:06;;;;;;;10.63;4.03;;;;;;;;;;6238242;23;20091;-56
2023/02/28 08:01:33;;;;;;;13.52;4.15;;;;;;;;;;6236798;23;20106;-55
2023/02/28 08:04:00;;;;;;;7.82;3.92;;;;;;;;;;6235488;23;20020;-54
2023/02/28 08:06:34;;;;;;;8.02;4.38;;;;;;;;;;6236699;23;20595;-51
2023/02/28 08:09:02;;;;;;;6.60;3.55;;;;;;;;;;6237848;23;20103;-51
2023/02/28 08:11:36;;;;;;;6.28;3.78;;;;;;;;;;6236866;23;20107;-64
2023/02/28 08:14:03;;;;;;;13.43;3.65;;;;;;;;;;6236873;23;20584;-64
2023/02/28 08:16:31;;;;;;;8.00;3.80;;;;;;;;;;6237855;23;20048;-64
2023/02/28 08:19:05;;;;;;;5.15;3.03;;;;;;;;;;6237463;23;20515;-64
2023/02/28 08:21:32;;;;;;;6.30;3.40;;;;;;;;;;6237094;23;20094;-64
2023/02/28 08:24:06;;;;;;;7.97;3.50;;;;;;;;;;6237136;23;20024;-64
2023/02/28 08:26:33;;;;;;;5.57;3.08;;;;;;;;;;6236352;23;20067;-72
2023/02/28 08:29:00;;;;;;;6.22;3.20;;;;;;;;;;6235812;23;20071;-72
2023/02/28 08:31:35;;;;;;;5.43;3.05;;;;;;;;;;6237914;23;20566;-71
2023/02/28 08:34:20;;;;;;;7.25;3.30;;;;;;;;;;6234949;23;20070;-71
2023/02/28 08:36:54;;;;;;;6.43;3.17;;;;;;;;;;6236611;23;20438;-65
2023/02/28 08:39:21;;;;;;;4.22;3.22;;;;;;;;;;6238018;23;20570;-59
2023/02/28 08:41:48;;;;;;;6.95;3.33;;;;;;;;;;6235910;23;20063;-67
2023/02/28 08:44:40;;;;;;;4.75;3.00;;;;;;;;;;6195178;23;20071;-67
2023/02/28 08:47:07;;;;;;;4.75;2.80;;;;;;;;;;6206294;23;20111;-67
2023/02/28 08:49:41;;;;;;;5.40;3.15;;;;;;;;;;6206910;23;20603;-67
2023/02/28 08:52:08;;;;;;;8.65;2.83;;;;;;;;;;6206854;23;20021;-68
2023/02/28 08:54:41;;;;;;;4.07;2.75;;;;;;;;;;6206483;23;20480;-67
2023/02/28 08:57:15;;;;;;;4.75;2.80;;;;;;;;;;6206709;23;20016;-62
2023/02/28 08:59:42;;;;;;;6.15;2.83;;;;;;;;;;6206165;23;20103;-60
2023/02/28 09:02:16;;;;;;;5.63;2.60;;;;;;;;;;6206779;23;20100;-62
2023/02/28 09:04:45;;;;;;;4.28;2.55;;;;;;;;;;6205731;23;20071;-60
2023/02/28 09:07:12;;;;;;;3.80;2.70;;;;;;;;;;6206347;23;20025;-60
2023/02/28 09:09:55;;;;;;;5.60;2.67;;;;;;;;;;6205298;23;20078;-59
2023/02/28 09:12:24;;;;;;;8.77;2.75;;;;;;;;;;6205867;23;20024;-60
2023/02/28 09:14:58;;;;;;;5.78;2.92;;;;;;;;;;6206391;23;20528;-60
2023/02/28 09:17:25;;;;;;;5.30;2.95;;;;;;;;;;6205692;23;20028;-60
2023/02/28 09:19:57;;;;;;;7.25;2.80;;;;;;;;;;6205161;23;20021;-60
2023/02/28 09:22:31;;;;;;;5.88;2.80;;;;;;;;;;6207254;23;20017;-60
2023/02/28 09:24:58;;;;;;;7.70;2.60;;;;;;;;;;6206509;23;20230;-60
2023/02/28 09:27:32;;;;;;;4.97;2.53;;;;;;;;;;6206230;23;20016;-60
2023/02/28 09:29:59;;;;;;;4.10;2.47;;;;;;;;;;6205035;23;20555;-60
2023/02/28 09:32:26;;;;;;;5.90;3.03;;;;;;;;;;6205713;23;20060;-61
2023/02/28 09:35:00;;;;;;;6.47;2.22;;;;;;;;;;6204865;23;20103;-63
2023/02/28 09:37:29;;;;;;;6.03;2.15;;;;;;;;;;6206442;23;20654;-52
2023/02/28 09:40:03;;;;;;;9.23;2.55;;;;;;;;;;6205753;23;20024;-56
2023/02/28 09:42:39;;;;;;;5.65;2.53;;;;;;;;;;6212466;23;20020;-54
2023/02/28 09:45:20;;;;;;;6.80;2.42;;;;;;;;;;6237708;23;20024;-57
2023/02/28 09:47:48;;;;;;;5.82;2.45;;;;;;;;;;6235562;23;20028;-52
2023/02/28 09:50:25;;;;;;;3.35;2.15;;;;;;;;;;6234706;23;20210;-56
2023/02/28 09:52:53;;;;;;;5.25;2.35;;;;;;;;;;6236430;23;20063;-57
2023/02/28 09:55:28;;;;;;;4.85;2.50;;;;;;;;;;6236052;23;20027;-55
2023/02/28 09:58:18;;;;;;;5.30;2.90;;;;;;;;;;6236700;23;20373;-52
2023/02/28 10:00:48;;;;;;;10.65;2.67;;;;;;;;;;6235397;23;20427;-58
2023/02/28 10:03:25;;;;;;;6.00;2.70;;;;;;;;;;6236445;23;20066;-62
2023/02/28 10:05:59;;;;;;;4.40;1.80;;;;;;;;;;6233878;23;20507;-58
2023/02/28 10:08:41;;;;;;;4.38;2.20;;;;;;;;;;6236977;23;20020;-59
2023/02/28 10:11:08;;;;;;;2.17;1.50;;;;;;;;;;6235039;23;20042;-58
2023/02/28 10:13:45;;;;;;;3.28;1.67;;;;;;;;;;6236222;23;20026;-58
2023/02/28 10:16:15;;;;;;;4.65;1.88;;;;;;;;;;6235762;23;20103;-60
2023/02/28 10:18:55;;;;;;;4.55;1.90;;;;;;;;;;6236099;23;20020;-59
2023/02/28 10:21:46;;;;;;;3.80;2.13;;;;;;;;;;6237171;23;20023;-61
2023/02/28 10:24:33;;;;;;;3.58;2.00;;;;;;;;;;6229711;23;20020;-61
2023/02/28 10:27:01;;;;;;;4.32;1.63;;;;;;;;;;6234809;23;20505;-62
2023/02/28 10:29:35;;;;;;;5.25;1.75;;;;;;;;;;6236040;23;20038;-61
2023/02/28 10:32:03;;;;;;;3.83;1.92;;;;;;;;;;6234411;23;20020;-65
2023/02/28 10:34:31;;;;;;;3.58;1.77;;;;;;;;;;6237325;23;20020;-63
2023/02/28 10:37:08;;;;;;;5.38;2.13;;;;;;;;;;6235439;23;20499;-62
2023/02/28 10:39:46;;;;;;;4.65;2.00;;;;;;;;;;6236373;23;20099;-63
2023/02/28 10:42:28;;;;;;;2.47;1.70;;;;;;;;;;6231903;23;20024;-62
2023/02/28 10:45:13;;;;;;;4.63;2.00;;;;;;;;;;6235961;23;20668;-63
2023/02/28 10:47:50;;;;;;;3.05;1.67;;;;;;;;;;6236467;23;20027;-63
2023/02/28 10:50:38;;;;;;;3.15;1.70;;;;;;;;;;6237069;23;20024;-63
2023/02/28 10:53:24;;;;;;;3.00;1.73;;;;;;;;;;6238413;23;20051;-63
2023/02/28 10:56:03;;;;;;;3.73;1.57;;;;;;;;;;6237760;23;20533;-63
2023/02/28 10:58:32;;;;;;;2.80;1.30;;;;;;;;;;6237550;23;20314;-63
2023/02/28 11:01:12;;;;;;;1.52;1.10;;;;;;;;;;6237004;23;20458;-65
2023/02/28 11:03:40;;;;;;;7.40;1.42;;;;;;;;;;6238307;23;20090;-61
2023/02/28 11:06:22;;;;;;;1.67;0.85;;;;;;;;;;6237259;23;20523;-60
2023/02/28 11:08:53;;;;;;;0.60;0.60;;;;;;;;;;6237277;23;20426;-60
2023/02/28 11:11:28;;;;;;;2.63;0.80;;;;;;;;;;6237203;23;20474;-59
2023/02/28 11:13:57;;;;;;;1.90;1.10;;;;;;;;;;6238190;23;20131;-60
2023/02/28 11:16:32;;;;;;;1.65;0.80;;;;;;;;;;6235740;23;20028;-60
2023/02/28 11:19:07;;;;;;;0.95;0.80;;;;;;;;;;6239230;23;20020;-52
2023/02/28 11:21:39;;;;;;;1.55;0.82;;;;;;;;;;6237667;23;20106;-50
2023/02/28 11:24:13;;;;;;;0.80;0.60;;;;;;;;;;6237433;23;20023;-53
2023/02/28 11:26:45;;;;;;;0.95;0.80;;;;;;;;;;6235916;23;20016;-52
2023/02/28 11:29:29;;;;;;;1.13;0.77;;;;;;;;;;6237842;23;20094;-65
2023/02/28 11:32:09;;;;;;;1.27;0.95;;;;;;;;;;6237296;23;20110;-61
2023/02/28 11:34:43;;;;;;;1.17;0.70;;;;;;;;;;6238313;23;20035;-60
2023/02/28 11:37:19;;;;;;;2.55;1.00;;;;;;;;;;6237162;23;20095;-60
2023/02/28 11:39:53;;;;;;;1.67;1.25;;;;;;;;;;6237242;23;20020;-61
2023/02/28 11:42:20;;;;;;;1.45;0.80;;;;;;;;;;6233682;23;20051;-60
2023/02/28 11:45:11;;;;;;;2.33;1.10;;;;;;;;;;6237821;23;20107;-61
2023/02/28 11:47:57;;;;;;;1.17;0.82;;;;;;;;;;6237174;23;20112;-61
2023/02/28 11:50:31;;;;;;;1.38;0.90;;;;;;;;;;6238327;23;20016;-61
2023/02/28 11:53:11;;;;;;;1.40;0.90;;;;;;;;;;6236470;23;20111;-61
2023/02/28 11:55:54;;;;;;;1.00;0.80;;;;;;;;;;6237583;23;20020;-61
2023/02/28 11:58:29;;;;;;;2.85;0.90;;;;;;;;;;6237893;23;20028;-65
2023/02/28 12:01:19;;;;;;;1.20;0.75;;;;;;;;;;6233987;23;20074;-52
2023/02/28 12:04:12;;;;;;;1.13;0.70;;;;;;;;;;6236889;23;20103;-51
2023/02/28 12:06:51;;;;;;;1.73;0.93;;;;;;;;;;6235853;23;20503;-51
2023/02/28 12:09:21;;;;;;;0.88;0.73;;;;;;;;;;6236728;23;20107;-51
2023/02/28 12:11:56;;;;;;;2.78;0.73;;;;;;;;;;6236294;23;20099;-51
2023/02/28 12:14:42;;;;;;;1.00;0.88;;;;;;;;;;6236099;23;20052;-71
2023/02/28 12:17:16;;;;;;;1.80;0.93;;;;;;;;;;6237660;23;20028;-71
2023/02/28 12:19:59;;;;;;;2.53;0.65;;;;;;;;;;6237723;23;20071;-71
2023/02/28 12:22:46;;;;;;;1.95;0.80;;;;;;;;;;6236239;23;20111;-70
2023/02/28 12:25:13;;;;;;;0.80;0.73;;;;;;;;;;6236349;23;20082;-69
2023/02/28 12:27:48;;;;;;;1.48;0.60;;;;;;;;;;6236071;23;20499;-58
2023/02/28 12:30:15;;;;;;;1.27;0.77;;;;;;;;;;6237511;23;20059;-59
2023/02/28 12:32:48;;;;;;;0.73;0.50;;;;;;;;;;6235150;23;20502;-57
2023/02/28 12:35:25;;;;;;;0.40;0.40;;;;;;;;;;6237798;23;20036;-59
2023/02/28 12:37:52;;;;;;;1.90;0.65;;;;;;;;;;6237060;23;20048;-58
2023/02/28 12:40:27;;;;;;;1.90;0.65;;;;;;;;;;6236989;23;20390;-59
2023/02/28 12:43:06;;;;;;;1.42;0.70;;;;;;;;;;6234887;23;20030;-66
2023/02/28 12:45:56;;;;;;;1.75;0.57;;;;;;;;;;6236236;23;20020;-67
2023/02/28 12:48:56;;;;;;;1.08;0.60;;;;;;;;;;6235411;23;20024;-67
2023/02/28 12:51:25;;;;;;;1.08;0.57;;;;;;;;;;6232446;23;20028;-67
2023/02/28 12:54:26;;;;;;;0.82;0.50;;;;;;;;;;6236261;23;20103;-61
2023/02/28 12:56:54;;;;;;;2.92;1.15;;;;;;;;;;6236422;23;20024;-59
2023/02/28 12:59:38;;;;;;;3.17;0.80;;;;;;;;;;6236797;23;20020;-59
2023/02/28 13:02:24;;;;;;;2.10;1.05;;;;;;;;;;6235573;23;20020;-60
2023/02/28 13:05:10;;;;;;;4.70;2.08;;;;;;;;;;6236706;23;20028;-59
2023/02/28 13:07:58;;;;;;;3.33;2.40;;;;;;;;;;6236022;23;20091;-59
2023/02/28 13:10:54;;;;;;;4.82;2.10;;;;;;;;;;6236285;23;20031;-58
2023/02/28 13:13:27;;;;;;;3.70;2.33;;;;;;;;;;6236849;23;20123;-59
2023/02/28 13:16:11;;;;;;;6.53;3.53;;;;;;;;;;6236107;23;20024;-59
2023/02/28 13:18:45;;;;;;;7.53;4.25;;;;;;;;;;6236521;23;20102;-59
2023/02/28 13:21:28;;;;;;;5.50;3.50;;;;;;;;;;6236022;23;20067;-59
2023/02/28 13:24:03;;;;;;;5.97;3.90;;;;;;;;;;6236241;23;20108;-69
2023/02/28 13:26:37;;;;;;;9.75;3.67;;;;;;;;;;6236409;23;20020;-58
2023/02/28 13:29:04;;;;;;;8.40;4.03;;;;;;;;;;6237447;23;20024;-59
2023/02/28 13:32:16;;;;;;;7.13;3.38;;;;;;;;;;6235476;23;20027;-59
2023/02/28 13:34:49;;;;;;;6.70;3.10;;;;;;;;;;6142458;23;20036;-59
2023/02/28 13:37:25;;;;;;;4.13;2.10;;;;;;;;;;6143186;23;20022;-58
2023/02/28 13:39:54;;;;;;;3.70;1.90;;;;;;;;;;6198754;23;20095;-61
2023/02/28 13:42:38;;;;;;;6.10;1.90;;;;;;;;;;6235636;23;20454;-61
2023/02/28 13:45:11;;;;;;;5.43;1.30;;;;;;;;;;6235587;23;20020;-62
2023/02/28 13:47:51;;;;;;;7.80;1.38;;;;;;;;;;6235484;23;20056;-61
2023/02/28 13:50:40;;;;;;;1.75;0.82;;;;;;;;;;6237526;23;20126;-50
2023/02/28 13:53:13;;;;;;;1.58;0.70;;;;;;;;;;6235149;23;20023;-60
2023/02/28 13:55:40;;;;;;;;;;;;;;;;;;6236130;23;20024;-60
2023/02/28 13:58:33;;;;;;;4.10;1.40;;;;;;;;;;6236019;23;20039;-60
2023/02/28 14:01:11;;;;;;;1.83;1.00;;;;;;;;;;6236797;23;20070;-60
2023/02/28 14:03:55;;;;;;;3.25;0.88;;;;;;;;;;6234550;23;20024;-60
2023/02/28 14:06:29;;;;;;;2.85;1.10;;;;;;;;;;6234610;23;20111;-60
2023/02/28 14:09:08;;;;;;;3.03;1.00;;;;;;;;;;6237220;23;20086;-59
2023/02/28 14:11:37;;;;;;;6.03;1.48;;;;;;;;;;6236740;23;20026;-59
2023/02/28 14:14:31;;;;;;;1.58;0.80;;;;;;;;;;6237094;23;20024;-58
2023/02/28 14:16:58;;;;;;;4.10;0.95;;;;;;;;;;6235380;23;20020;-58
2023/02/28 14:19:33;;;;;;;3.03;0.85;;;;;;;;;;6236090;23;20522;-69
2023/02/28 14:22:03;;;;;;;3.30;1.00;;;;;;;;;;6236760;23;20020;-59
2023/02/28 14:24:49;;;;;;;2.83;1.23;;;;;;;;;;6238877;23;20440;-56
2023/02/28 14:27:29;;;;;;;3.60;1.10;;;;;;;;;;6238124;23;20024;-58
2023/02/28 14:30:24;;;;;;;2.47;1.50;;;;;;;;;;6237611;23;20074;-59
2023/02/28 14:32:51;;;;;;;5.88;1.60;;;;;;;;;;6237663;23;20020;-59
2023/02/28 14:35:25;;;;;;;3.03;1.40;;;;;;;;;;6238355;23;20026;-59
2023/02/28 14:37:53;;;;;;;2.72;1.50;;;;;;;;;;6237474;23;20220;-49
2023/02/28 14:40:30;;;;;;;6.40;1.80;;;;;;;;;;6238417;23;20103;-50
2023/02/28 14:43:05;;;;;;;7.15;1.30;;;;;;;;;;6236406;23;20116;-53
2023/02/28 14:45:49;;;;;;;3.83;1.20;;;;;;;;;;6236470;23;20016;-50
2023/02/28 14:48:17;;;;;;;;;;;;;;;;;;6237856;23;20032;-60
2023/02/28 14:50:53;;;;;;;2.30;0.80;;;;;;;;;;6237759;23;19915;-58
2023/02/28 14:53:21;;;;;;;3.78;1.10;;;;;;;;;;6238925;23;20103;-58
2023/02/28 14:55:49;;;;;;;3.17;0.98;;;;;;;;;;6236940;23;20070;-58
2023/02/28 14:58:25;;;;;;;5.47;1.10;;;;;;;;;;6236159;23;20103;-60
2023/02/28 15:00:53;;;;;;;4.05;1.20;;;;;;;;;;6238195;23;20024;-60
2023/02/28 15:03:34;;;;;;;1.35;0.95;;;;;;;;;;6236966;23;20028;-60
2023/02/28 15:06:04;;;;;;;1.92;0.90;;;;;;;;;;6237664;23;20027;-62
2023/02/28 15:08:38;;;;;;;2.75;1.02;;;;;;;;;;6237385;23;20026;-63
2023/02/28 15:11:07;;;;;;;3.35;1.27;;;;;;;;;;6238308;23;20135;-62
2023/02/28 15:13:47;;;;;;;3.13;0.90;;;;;;;;;;6236851;23;20303;-62
2023/02/28 15:16:20;;;;;;;1.98;0.90;;;;;;;;;;6237417;23;20062;-61
2023/02/28 15:18:57;;;;;;;2.33;1.00;;;;;;;;;;6238105;23;20048;-67
2023/02/28 15:21:26;;;;;;;3.17;1.13;;;;;;;;;;6237395;23;20358;-66
2023/02/28 15:24:05;;;;;;;1.70;1.13;;;;;;;;;;6237214;23;20147;-66
2023/02/28 15:26:34;;;;;;;2.08;0.80;;;;;;;;;;6239019;23;20026;-66
2023/02/28 15:29:08;;;;;;;2.15;1.00;;;;;;;;;;6236623;23;20142;-66